Time;durP1;ratioP1;P1;durP2;ratioP2;P2;SDS_P1;SDS_P2;PMS_P1;PMS_P2;Temp;Humidity;BMP_temperature;BMP_pressure;BME280_temperature;BME280_humidity;BME280_pressure;Samples;Min_cycle;Max_cycle;Signal;HPM_P1;HPM_P2
2022/04/05 00:00:31;;;;;;;5.70;5.10;;;;;;;8.72;34.90;98066.72;1727423;82;21832;-68
2022/04/05 00:03:04;;;;;;;5.78;5.17;;;;;;;8.68;34.98;98065.78;1727838;82;21507;-66
2022/04/05 00:05:32;;;;;;;5.85;4.87;;;;;;;8.66;35.04;98058.53;1727541;82;20966;-66
2022/04/05 00:07:59;;;;;;;6.28;5.67;;;;;;;8.64;35.15;98050.45;1727840;82;20950;-67
2022/04/05 00:10:27;;;;;;;5.60;4.97;;;;;;;8.60;35.26;98047.36;1727610;82;20976;-68
2022/04/05 00:12:54;;;;;;;5.78;5.17;;;;;;;8.58;35.34;98048.06;1723019;82;21889;-67
2022/04/05 00:15:23;;;;;;;6.00;5.40;;;;;;;8.56;35.38;98041.31;1727236;82;20998;-67
2022/04/05 00:17:52;;;;;;;5.90;4.72;;;;;;;8.52;35.54;98039.58;1728099;82;20986;-67
2022/04/05 00:20:19;;;;;;;5.67;5.10;;;;;;;8.53;35.67;98032.42;1727708;82;21168;-66
2022/04/05 00:22:46;;;;;;;5.97;5.37;;;;;;;8.50;35.77;98031.47;1727474;82;21033;-66
2022/04/05 00:25:14;;;;;;;4.75;4.35;;;;;;;8.51;35.80;98013.24;1727379;82;21835;-66
2022/04/05 00:27:41;;;;;;;4.85;4.45;;;;;;;8.52;35.87;98015.72;1727902;82;20875;-67
2022/04/05 00:30:11;;;;;;;5.78;5.17;;;;;;;8.52;35.86;98001.14;1727264;82;20927;-67
2022/04/05 00:32:39;;;;;;;5.55;5.05;;;;;;;8.52;35.97;97997.16;1727916;82;21483;-66
2022/04/05 00:35:08;;;;;;;6.17;5.58;;;;;;;8.52;36.01;97991.04;1724199;82;20927;-66
2022/04/05 00:37:36;;;;;;;5.53;5.03;;;;;;;8.50;36.08;97988.56;1727895;82;21186;-68
2022/04/05 00:40:05;;;;;;;5.80;5.30;;;;;;;8.49;36.27;97976.34;1729392;81;21030;-67
2022/04/05 00:42:34;;;;;;;5.60;5.05;;;;;;;8.49;36.40;97974.19;1755895;81;21483;-67
2022/04/05 00:45:01;;;;;;;5.87;5.30;;;;;;;8.46;36.43;97965.30;1756665;81;21563;-67
2022/04/05 00:47:29;;;;;;;5.45;4.58;;;;;;;8.47;36.46;97954.48;1756432;81;20914;-66
2022/04/05 00:49:56;;;;;;;7.60;5.45;;;;;;;8.43;36.54;97949.28;1756880;81;21240;-67
2022/04/05 00:52:24;;;;;;;5.12;4.47;;;;;;;8.39;36.66;97941.41;1754752;81;20982;-65
2022/04/05 00:54:52;;;;;;;6.47;5.75;;;;;;;8.36;36.74;97940.47;1756915;81;20993;-67
2022/04/05 00:57:21;;;;;;;6.85;5.25;;;;;;;8.37;36.70;97934.14;1755725;81;20890;-66
2022/04/05 00:59:54;;;;;;;6.40;5.05;;;;;;;8.36;36.83;97919.27;1755707;81;20890;-65
2022/04/05 01:02:21;;;;;;;5.85;5.25;;;;;;;8.38;36.89;97930.49;1751922;81;21279;-66
2022/04/05 01:04:49;;;;;;;5.60;5.00;;;;;;;8.40;36.92;97922.34;1755905;81;20922;-64
2022/04/05 01:07:19;;;;;;;5.62;5.03;;;;;;;8.41;36.98;97920.02;1755771;81;21484;-65
2022/04/05 01:09:46;;;;;;;6.33;5.70;;;;;;;8.42;36.95;97909.73;1755643;81;20978;-66
2022/04/05 01:12:14;;;;;;;6.20;5.60;;;;;;;8.39;37.04;97918.06;1755871;81;20939;-67
2022/04/05 01:14:41;;;;;;;5.67;5.17;;;;;;;8.38;37.16;97904.49;1755243;81;21272;-65
2022/04/05 01:17:09;;;;;;;7.20;4.92;;;;;;;8.40;37.21;97898.48;1753603;81;21456;-66
2022/04/05 01:19:37;;;;;;;6.00;5.28;;;;;;;8.45;37.12;97898.72;1756416;81;20931;-69
2022/04/05 01:22:05;;;;;;;6.25;5.25;;;;;;;8.48;37.04;97883.26;1752570;81;21009;-66
2022/04/05 01:24:33;;;;;;;5.90;5.30;;;;;;;8.51;36.92;97882.87;1756654;81;20985;-67
2022/04/05 01:27:04;;;;;;;6.58;5.97;;;;;;;8.56;36.80;97877.80;1756090;81;21257;-68
2022/04/05 01:29:31;;;;;;;6.08;5.42;;;;;;;8.53;36.76;97879.52;1755754;81;20930;-68
2022/04/05 01:32:05;;;;;;;6.33;5.62;;;;;;;8.56;36.55;97871.17;1755311;81;20933;-66
2022/04/05 01:34:32;;;;;;;7.25;5.87;;;;;;;8.71;36.35;97867.59;1749547;81;21492;-67
2022/04/05 01:37:02;;;;;;;6.80;6.20;;;;;;;8.74;36.19;97872.47;1756370;80;20893;-68
2022/04/05 01:39:31;;;;;;;5.92;5.40;;;;;;;8.75;36.14;97864.84;1756449;80;21203;-65
2022/04/05 01:42:01;;;;;;;7.58;5.45;;;;;;;8.77;36.04;97845.56;1735494;81;21068;-66
2022/04/05 01:44:28;;;;;;;6.85;6.20;;;;;;;8.84;35.88;97855.18;1727837;82;21063;-65
2022/04/05 01:46:56;;;;;;;6.50;5.87;;;;;;;8.83;35.83;97846.94;1727812;82;21445;-68
2022/04/05 01:49:23;;;;;;;6.65;5.40;;;;;;;8.84;35.75;97837.15;1727833;82;21007;-68
2022/04/05 01:51:51;;;;;;;6.30;5.70;;;;;;;8.83;35.72;97833.67;1727206;82;22067;-66
2022/04/05 01:54:20;;;;;;;7.12;5.72;;;;;;;8.87;35.67;97831.42;1727619;82;20923;-67
2022/04/05 01:56:49;;;;;;;8.23;6.15;;;;;;;8.85;35.65;97827.66;1728387;82;20935;-66
2022/04/05 01:59:21;;;;;;;6.05;5.45;;;;;;;8.86;35.58;97827.98;1727809;82;21468;-67
2022/04/05 02:01:49;;;;;;;6.50;5.87;;;;;;;8.89;35.54;97824.11;1727775;82;20927;-67
2022/04/05 02:04:16;;;;;;;6.30;5.70;;;;;;;8.89;35.51;97814.30;1727552;82;21250;-67
2022/04/05 02:06:43;;;;;;;7.35;6.60;;;;;;;8.91;35.52;97812.78;1727829;82;21028;-68
2022/04/05 02:09:13;;;;;;;6.87;5.97;;;;;;;8.95;35.47;97815.34;1728117;82;21426;-67
2022/04/05 02:11:40;;;;;;;7.53;6.83;;;;;;;8.95;35.42;97806.05;1727463;82;20907;-66
2022/04/05 02:14:24;;;;;;;13.32;6.60;;;;;;;8.95;35.46;97798.92;1719164;82;21109;-65
2022/04/05 02:16:51;;;;;;;7.28;5.97;;;;;;;8.96;35.49;97801.07;1724868;83;21889;-69
2022/04/05 02:19:19;;;;;;;6.72;5.87;;;;;;;8.99;35.47;97803.33;1727425;82;21386;-67
2022/04/05 02:21:46;;;;;;;6.72;6.12;;;;;;;9.02;35.42;97804.25;1727666;82;20983;-65
2022/04/05 02:24:14;;;;;;;6.45;5.65;;;;;;;9.06;35.39;97800.17;1727794;82;20990;-66
2022/04/05 02:26:41;;;;;;;8.38;7.17;;;;;;;9.13;35.30;97794.36;1725998;82;20971;-68
2022/04/05 02:29:08;;;;;;;7.25;6.03;;;;;;;9.16;35.29;97796.61;1711120;83;21245;-67
2022/04/05 02:31:38;;;;;;;10.03;6.20;;;;;;;9.20;35.24;97792.02;1727428;82;20975;-68
2022/04/05 02:34:05;;;;;;;6.80;5.97;;;;;;;9.23;35.22;97781.01;1725331;83;21014;-69
2022/04/05 02:36:36;;;;;;;6.28;5.65;;;;;;;9.28;35.22;97775.91;1726369;83;21018;-68
2022/04/05 02:39:04;;;;;;;7.78;5.00;;;;;;;9.30;35.17;97782.36;1710919;83;21535;-68
2022/04/05 02:41:32;;;;;;;6.42;5.83;;;;;;;9.33;35.18;97779.30;1739589;81;21208;-67
2022/04/05 02:44:00;;;;;;;6.83;6.12;;;;;;;9.42;35.10;97776.73;1724690;81;20908;-69
2022/04/05 02:46:28;;;;;;;6.75;6.15;;;;;;;9.46;35.09;97763.39;1755603;81;20987;-67
2022/04/05 02:48:56;;;;;;;6.17;5.58;;;;;;;9.47;35.10;97757.03;1756905;81;20998;-67
2022/04/05 02:51:31;;;;;;;6.55;5.20;;;;;;;9.53;35.10;97762.05;1718739;83;20895;-66
2022/04/05 02:54:00;;;;;;;5.97;5.47;;;;;;;9.57;35.06;97758.77;1753810;81;21143;-67
2022/04/05 02:56:29;;;;;;;5.97;5.40;;;;;;;9.63;34.95;97761.11;1755135;81;20887;-66
2022/04/05 02:58:57;;;;;;;6.55;5.55;;;;;;;9.71;34.88;97772.85;1756663;81;21038;-66
2022/04/05 03:01:25;;;;;;;6.08;5.45;;;;;;;9.77;34.79;97756.94;1756412;81;21571;-66
2022/04/05 03:03:53;;;;;;;7.35;6.60;;;;;;;9.83;34.72;97760.58;1754992;81;20927;-67
2022/04/05 03:06:20;;;;;;;6.75;6.15;;;;;;;9.89;34.68;97764.56;1755282;81;21400;-67
2022/04/05 03:08:48;;;;;;;7.12;5.95;;;;;;;9.91;34.85;97747.90;1755752;81;20914;-67
2022/04/05 03:11:16;;;;;;;6.35;5.72;;;;;;;10.02;34.99;97744.30;1756470;81;20961;-67
2022/04/05 03:13:43;;;;;;;7.20;6.50;;;;;;;10.07;35.09;97739.17;1755241;80;21030;-66
2022/04/05 03:16:11;;;;;;;8.05;6.50;;;;;;;10.08;35.42;97727.53;1755620;81;20892;-66
2022/04/05 03:18:39;;;;;;;6.62;5.78;;;;;;;10.10;35.60;97724.97;1755737;81;21253;-66
2022/04/05 03:21:07;;;;;;;6.42;5.83;;;;;;;10.12;35.72;97729.59;1741614;81;20938;-66
2022/04/05 03:23:35;;;;;;;7.05;5.75;;;;;;;10.13;35.78;97732.56;1756110;81;21430;-67
2022/04/05 03:26:03;;;;;;;5.85;5.28;;;;;;;10.20;35.72;97728.53;1753629;81;21030;-67
2022/04/05 03:28:31;;;;;;;6.33;5.72;;;;;;;10.20;35.72;97708.09;1756009;81;20934;-68
2022/04/05 03:30:59;;;;;;;6.35;5.75;;;;;;;10.20;35.75;97703.29;1756795;81;21267;-65
2022/04/05 03:33:26;;;;;;;6.87;6.20;;;;;;;10.22;35.82;97702.59;1756523;81;21590;-66
2022/04/05 03:35:55;;;;;;;6.37;5.78;;;;;;;10.25;35.84;97694.99;1754959;81;22228;-66
2022/04/05 03:38:23;;;;;;;6.20;5.60;;;;;;;10.55;35.51;97692.61;1750507;81;20971;-68
2022/04/05 03:40:50;;;;;;;5.92;5.42;;;;;;;10.33;35.90;97690.77;1721921;81;20914;-67
2022/04/05 03:43:17;;;;;;;6.12;5.53;;;;;;;10.23;36.19;97686.93;1728047;81;21346;-68
2022/04/05 03:45:47;;;;;;;6.75;6.15;;;;;;;10.23;36.29;97682.95;1727674;82;20993;-68
2022/04/05 03:48:15;;;;;;;6.55;5.95;;;;;;;10.25;36.37;97684.87;1727678;82;20963;-67
2022/04/05 03:50:43;;;;;;;6.62;6.03;;;;;;;10.28;36.38;97681.80;1727265;82;21515;-65
2022/04/05 03:53:11;;;;;;;6.80;6.10;;;;;;;10.27;36.48;97669.55;1727357;83;20911;-67
2022/04/05 03:55:39;;;;;;;6.47;5.87;;;;;;;10.30;36.52;97677.89;1727459;82;21260;-68
2022/04/05 03:58:09;;;;;;;5.67;5.17;;;;;;;10.31;36.59;97676.06;1714628;82;20887;-67
2022/04/05 04:00:36;;;;;;;6.75;6.15;;;;;;;10.32;36.59;97672.39;1728150;82;20982;-67
2022/04/05 04:03:17;;;;;;;6.20;5.70;;;;;;;10.36;36.59;97668.27;1727549;82;21031;-68
2022/04/05 04:05:45;;;;;;;6.90;6.20;;;;;;;10.37;36.57;97659.27;1727808;82;21030;-68
2022/04/05 04:08:13;;;;;;;7.08;6.20;;;;;;;10.39;36.53;97658.54;1726352;83;21323;-66
2022/04/05 04:10:42;;;;;;;6.17;5.58;;;;;;;10.43;36.51;97669.86;1728089;82;20915;-66
2022/04/05 04:13:11;;;;;;;7.35;6.67;;;;;;;10.50;36.45;97659.20;1727715;82;20853;-67
2022/04/05 04:15:40;;;;;;;6.70;6.05;;;;;;;10.57;36.39;97654.66;1727406;82;20907;-67
2022/04/05 04:18:10;;;;;;;6.45;5.85;;;;;;;10.62;36.30;97654.00;1727636;82;20939;-66
2022/04/05 04:20:44;;;;;;;9.43;6.55;;;;;;;10.50;36.53;97664.52;1727863;82;21975;-66
2022/04/05 04:23:12;;;;;;;8.05;5.78;;;;;;;10.49;36.66;97665.53;1727973;82;21405;-66
2022/04/05 04:25:42;;;;;;;7.17;6.47;;;;;;;10.50;36.84;97661.86;1727735;82;20978;-69
2022/04/05 04:28:10;;;;;;;6.28;5.78;;;;;;;10.49;37.11;97653.58;1727554;82;21021;-65
2022/04/05 04:30:38;;;;;;;7.28;5.85;;;;;;;10.43;37.38;97651.25;1727949;82;21515;-66
2022/04/05 04:33:06;;;;;;;8.30;6.33;;;;;;;10.36;37.72;97646.49;1713742;82;21245;-64
2022/04/05 04:35:34;;;;;;;6.70;6.10;;;;;;;10.37;37.90;97647.31;1727546;82;20970;-65
2022/04/05 04:38:03;;;;;;;6.75;6.10;;;;;;;10.38;37.95;97645.77;1727581;82;20970;-66
2022/04/05 04:40:30;;;;;;;7.10;6.40;;;;;;;10.39;38.08;97649.23;1727726;82;20976;-69
2022/04/05 04:42:58;;;;;;;7.28;6.67;;;;;;;10.41;38.18;97651.98;1751252;80;20952;-67
2022/04/05 04:45:28;;;;;;;7.55;6.85;;;;;;;10.40;38.65;97649.55;1761029;80;21232;-66
2022/04/05 04:47:55;;;;;;;7.35;6.65;;;;;;;10.41;38.80;97651.98;1761934;80;21016;-67
2022/04/05 04:50:22;;;;;;;8.35;7.12;;;;;;;10.41;39.06;97643.19;1761740;80;20886;-66
2022/04/05 04:52:50;;;;;;;7.25;6.55;;;;;;;10.62;39.04;97645.52;1759684;80;20902;-66
2022/04/05 04:55:17;;;;;;;7.05;6.40;;;;;;;10.74;39.17;97645.12;1761821;80;20997;-67
2022/04/05 04:57:45;;;;;;;8.48;7.42;;;;;;;10.78;39.43;97644.19;1757884;80;21236;-66
2022/04/05 05:00:14;;;;;;;8.23;7.50;;;;;;;10.70;40.30;97655.90;1761462;80;20935;-67
2022/04/05 05:02:46;;;;;;;7.95;7.25;;;;;;;10.68;40.91;97638.53;1759809;80;20906;-67
2022/04/05 05:05:18;;;;;;;8.20;7.40;;;;;;;10.62;41.33;97647.36;1760857;80;20980;-67
2022/04/05 05:07:50;;;;;;;8.05;7.25;;;;;;;10.64;41.63;97642.66;1760649;80;20986;-66
2022/04/05 05:10:19;;;;;;;7.62;6.92;;;;;;;10.61;41.98;97645.20;1761830;80;21216;-68
2022/04/05 05:12:46;;;;;;;8.33;7.58;;;;;;;10.59;42.31;97638.47;1759718;80;21547;-67
2022/04/05 05:15:18;;;;;;;7.60;6.83;;;;;;;10.56;42.61;97635.73;1760857;81;20962;-66
2022/04/05 05:17:46;;;;;;;7.67;7.00;;;;;;;10.57;42.87;97637.38;1761304;80;20989;-66
2022/04/05 05:20:16;;;;;;;8.55;7.45;;;;;;;10.53;43.12;97638.84;1761712;80;21492;-68
2022/04/05 05:22:44;;;;;;;8.63;7.83;;;;;;;10.50;43.43;97634.77;1758358;80;21039;-68
2022/04/05 05:25:12;;;;;;;8.70;8.00;;;;;;;10.47;43.71;97631.20;1761460;80;20887;-67
2022/04/05 05:27:41;;;;;;;8.83;7.95;;;;;;;10.48;43.90;97634.14;1760937;81;21010;-67
2022/04/05 05:30:09;;;;;;;8.45;7.65;;;;;;;10.50;44.07;97637.42;1757802;80;20980;-66
2022/04/05 05:32:46;;;;;;;9.60;8.65;;;;;;;10.49;44.23;97624.33;1761021;80;20990;-66
2022/04/05 05:35:17;;;;;;;8.43;7.72;;;;;;;10.46;44.55;97623.42;1761629;80;21260;-67
2022/04/05 05:37:46;;;;;;;9.55;8.63;;;;;;;10.47;44.68;97623.23;1761234;80;20989;-67
2022/04/05 05:40:13;;;;;;;8.78;7.87;;;;;;;10.46;44.88;97620.77;1760330;80;21009;-66
2022/04/05 05:43:01;;;;;;;9.73;8.70;;;;;;;10.45;45.13;97622.60;1754461;81;21048;-66
2022/04/05 05:45:30;;;;;;;9.10;8.20;;;;;;;10.37;45.43;97619.41;1749192;81;20962;-67
2022/04/05 05:47:57;;;;;;;9.45;8.48;;;;;;;10.26;45.73;97626.21;1755899;81;21928;-69
2022/04/05 05:50:26;;;;;;;9.23;8.40;;;;;;;10.27;45.91;97624.38;1754468;81;21049;-67
2022/04/05 05:52:53;;;;;;;8.85;8.05;;;;;;;10.33;45.94;97627.48;1755903;80;20863;-68
2022/04/05 05:55:21;;;;;;;9.23;8.40;;;;;;;10.45;45.98;97622.60;1756590;81;21438;-68
2022/04/05 05:57:49;;;;;;;8.33;7.60;;;;;;;10.56;45.93;97627.75;1754721;81;20895;-68
2022/04/05 06:00:22;;;;;;;9.18;8.25;;;;;;;10.66;45.82;97622.80;1755439;81;21239;-66
2022/04/05 06:02:55;;;;;;;8.70;7.78;;;;;;;10.70;45.91;97615.19;1755103;81;21421;-67
2022/04/05 06:05:23;;;;;;;9.15;8.23;;;;;;;10.82;45.79;97609.49;1756442;81;20890;-68
2022/04/05 06:07:51;;;;;;;12.65;10.05;;;;;;;10.88;45.73;97616.08;1755026;80;20903;-67
2022/04/05 06:10:18;;;;;;;12.65;10.98;;;;;;;11.18;45.26;97617.03;1752176;81;20902;-68
2022/04/05 06:12:47;;;;;;;11.18;10.08;;;;;;;11.23;45.60;97616.40;1756686;81;21261;-68
2022/04/05 06:15:15;;;;;;;9.23;8.33;;;;;;;11.27;45.65;97631.39;1755853;81;21009;-67
2022/04/05 06:17:44;;;;;;;10.15;9.15;;;;;;;11.24;45.75;97612.69;1756045;81;21412;-69
2022/04/05 06:20:14;;;;;;;9.70;8.50;;;;;;;11.20;45.62;97612.02;1753537;81;20927;-66
2022/04/05 06:26:42;;;;;;;;;;;;;;;11.36;44.93;97598.97;1751037;81;21444;-68
2022/04/05 06:29:10;;;;;;;10.25;9.28;;;;;;;11.32;44.92;97618.23;1719301;83;20431;-68
2022/04/05 06:31:54;;;;;;;13.80;9.95;;;;;;;11.27;45.00;97603.45;1716438;83;20942;-68
2022/04/05 06:34:22;;;;;;;11.20;10.13;;;;;;;11.03;45.54;97600.59;1756485;81;21424;-68
2022/04/05 06:36:49;;;;;;;10.23;8.83;;;;;;;11.04;45.68;97607.55;1755228;81;20859;-69
2022/04/05 06:39:16;;;;;;;10.60;9.65;;;;;;;11.06;45.54;97596.68;1755555;81;21381;-67
2022/04/05 06:41:44;;;;;;;9.75;8.83;;;;;;;11.07;45.48;97594.33;1756539;81;21590;-71
2022/04/05 06:44:11;;;;;;;10.63;9.63;;;;;;;11.15;45.41;97598.86;1720099;81;21459;-68
2022/04/05 06:46:38;;;;;;;10.10;9.18;;;;;;;11.12;45.38;97598.48;1753030;81;21092;-67
2022/04/05 06:49:05;;;;;;;9.60;8.70;;;;;;;11.24;45.20;97594.59;1752811;81;20981;-69
2022/04/05 06:51:33;;;;;;;9.63;8.73;;;;;;;11.14;45.25;97593.23;1756409;81;21171;-67
2022/04/05 06:54:00;;;;;;;8.63;7.92;;;;;;;11.22;45.15;97593.46;1755841;81;20949;-65
2022/04/05 06:56:28;;;;;;;8.90;8.00;;;;;;;11.28;45.05;97587.27;1755633;81;20942;-65
2022/04/05 06:58:55;;;;;;;9.63;8.70;;;;;;;11.31;44.96;97594.83;1754159;81;20895;-66
2022/04/05 07:01:22;;;;;;;9.93;8.90;;;;;;;11.35;44.82;97592.52;1756303;81;20922;-67
2022/04/05 07:03:50;;;;;;;10.18;8.58;;;;;;;11.72;44.16;97584.87;1743799;80;21222;-64
2022/04/05 07:06:17;;;;;;;9.10;8.20;;;;;;;11.90;43.70;97584.86;1752848;80;21057;-64
2022/04/05 07:08:45;;;;;;;9.00;8.10;;;;;;;12.03;43.36;97583.36;1754549;81;21110;-62
2022/04/05 07:11:13;;;;;;;8.00;7.30;;;;;;;12.05;43.06;97577.79;1745812;81;21535;-64
2022/04/05 07:13:40;;;;;;;8.83;8.03;;;;;;;12.08;43.03;97577.34;1756590;81;21503;-64
2022/04/05 07:16:08;;;;;;;9.00;8.20;;;;;;;12.12;42.84;97587.32;1716052;82;21269;-67
2022/04/05 07:18:35;;;;;;;8.98;8.18;;;;;;;12.33;42.53;97586.05;1754164;81;20942;-64
2022/04/05 07:21:02;;;;;;;7.83;7.17;;;;;;;12.48;42.20;97574.44;1755318;81;20910;-66
2022/04/05 07:23:30;;;;;;;8.50;7.70;;;;;;;12.45;42.08;97572.73;1755520;81;20994;-65
2022/04/05 07:25:57;;;;;;;8.18;7.45;;;;;;;12.54;41.92;97578.83;1755899;81;20977;-65
2022/04/05 07:28:24;;;;;;;8.60;7.90;;;;;;;12.61;41.73;97586.23;1755706;81;21255;-65
2022/04/05 07:30:51;;;;;;;8.48;7.72;;;;;;;12.68;41.57;97582.12;1756405;81;21420;-64
2022/04/05 07:33:19;;;;;;;8.00;7.20;;;;;;;12.68;41.53;97585.61;1756402;81;20890;-64
2022/04/05 07:35:46;;;;;;;7.97;7.28;;;;;;;12.77;41.52;97590.09;1755849;81;20994;-65
2022/04/05 07:38:14;;;;;;;7.67;7.08;;;;;;;12.95;41.25;97591.34;1755181;81;20970;-69
2022/04/05 07:40:52;;;;;;;8.58;7.78;;;;;;;12.91;41.40;97590.16;1755184;81;21244;-65
2022/04/05 07:43:25;;;;;;;8.53;7.72;;;;;;;12.91;41.56;97578.97;1733723;81;21405;-67
2022/04/05 07:45:51;;;;;;;8.00;7.30;;;;;;;13.09;41.57;97592.77;1727960;82;20943;-69
2022/04/05 07:48:20;;;;;;;8.38;7.67;;;;;;;13.13;41.52;97587.27;1727440;82;20903;-67
2022/04/05 07:50:48;;;;;;;8.50;7.80;;;;;;;13.13;41.97;97601.95;1728032;82;20938;-69
2022/04/05 07:53:16;;;;;;;8.13;7.42;;;;;;;13.15;42.02;97597.19;1727537;82;21259;-67
2022/04/05 07:55:43;;;;;;;11.20;8.20;;;;;;;13.21;41.98;97604.27;1728063;82;20975;-66
2022/04/05 07:58:10;;;;;;;8.43;7.62;;;;;;;13.15;41.86;97588.36;1727421;82;20899;-69
2022/04/05 08:00:38;;;;;;;8.10;7.37;;;;;;;13.03;42.13;97602.20;1727490;82;20939;-69
2022/04/05 08:03:06;;;;;;;7.72;7.05;;;;;;;12.98;42.33;97609.56;1716005;82;20993;-66
2022/04/05 08:05:33;;;;;;;7.85;7.15;;;;;;;12.96;42.60;97608.45;1727866;82;21879;-70
2022/04/05 08:08:01;;;;;;;8.23;7.53;;;;;;;12.88;42.91;97595.95;1726438;82;20945;-67
2022/04/05 08:10:28;;;;;;;8.65;7.78;;;;;;;12.84;43.05;97606.80;1727526;82;20991;-68
2022/04/05 08:12:56;;;;;;;7.90;7.25;;;;;;;12.87;43.31;97587.67;1728012;82;21025;-66
2022/04/05 08:15:23;;;;;;;8.45;7.65;;;;;;;12.89;43.22;97591.73;1727654;82;20891;-68
2022/04/05 08:17:51;;;;;;;7.55;6.95;;;;;;;12.82;43.42;97597.71;1727594;82;21229;-68
2022/04/05 08:20:21;;;;;;;8.58;7.78;;;;;;;12.87;43.46;97597.83;1727628;82;20936;-68
2022/04/05 08:22:48;;;;;;;8.33;7.65;;;;;;;12.88;43.48;97591.95;1726902;82;21001;-69
2022/04/05 08:25:17;;;;;;;8.98;8.08;;;;;;;12.77;43.71;97594.09;1720199;82;21456;-69
2022/04/05 08:27:48;;;;;;;8.08;7.37;;;;;;;12.81;43.64;97584.06;1727081;82;21272;-67
2022/04/05 08:30:17;;;;;;;8.90;8.08;;;;;;;12.82;43.52;97585.70;1729886;82;22275;-69
2022/04/05 08:32:45;;;;;;;8.30;7.53;;;;;;;12.82;43.50;97590.22;1727469;82;21002;-70
2022/04/05 08:35:15;;;;;;;8.43;7.62;;;;;;;12.83;43.45;97598.50;1725653;82;20927;-68
2022/04/05 08:37:43;;;;;;;7.58;6.90;;;;;;;12.89;43.40;97586.91;1725027;82;21021;-68
2022/04/05 08:40:13;;;;;;;8.25;7.30;;;;;;;12.93;43.34;97589.43;1724159;81;20859;-67
2022/04/05 08:42:45;;;;;;;7.45;6.85;;;;;;;12.88;43.40;97586.61;1727271;81;20852;-70
2022/04/05 08:45:13;;;;;;;8.38;7.58;;;;;;;12.90;43.43;97590.70;1756320;81;20891;-67
2022/04/05 08:47:52;;;;;;;7.92;7.28;;;;;;;12.87;43.43;97595.68;1756521;81;20891;-69
2022/04/05 08:50:21;;;;;;;8.00;7.35;;;;;;;12.83;43.47;97599.83;1754715;81;21417;-68
2022/04/05 08:52:49;;;;;;;7.53;6.83;;;;;;;12.82;43.58;97588.89;1755559;81;21449;-65
2022/04/05 08:55:17;;;;;;;8.43;7.37;;;;;;;12.79;43.63;97595.49;1754631;81;21248;-68
2022/04/05 08:57:44;;;;;;;8.23;7.53;;;;;;;12.78;43.69;97599.70;1750232;81;21052;-69
2022/04/05 09:00:14;;;;;;;9.00;8.10;;;;;;;12.82;43.73;97591.55;1754977;81;20990;-67
2022/04/05 09:03:04;;;;;;;8.93;8.10;;;;;;;12.85;43.75;97593.77;1756268;81;20938;-68
2022/04/05 09:05:40;;;;;;;9.65;7.83;;;;;;;12.87;43.61;97588.49;1755279;81;21005;-66
2022/04/05 09:08:28;;;;;;;8.50;7.72;;;;;;;12.91;43.53;97592.31;1743592;81;21961;-65
2022/04/05 09:11:14;;;;;;;;;;;;;;;12.92;43.50;97596.62;1758452;81;21494;-67
2022/04/05 09:13:43;;;;;;;8.28;7.58;;;;;;;12.78;43.71;97588.52;1718820;83;20159;-65
2022/04/05 09:16:10;;;;;;;8.03;7.33;;;;;;;12.75;43.85;97592.16;1669091;83;21010;-65
2022/04/05 09:18:40;;;;;;;8.40;7.65;;;;;;;12.79;43.89;97595.49;1751361;81;21483;-66
2022/04/05 09:21:09;;;;;;;9.18;8.28;;;;;;;12.86;43.69;97590.04;1761714;81;21138;-66
2022/04/05 09:23:41;;;;;;;9.00;8.03;;;;;;;12.85;43.65;97589.22;1755754;81;21510;-65
2022/04/05 09:26:15;;;;;;;9.15;8.28;;;;;;;12.83;43.61;97593.98;1755728;81;20982;-67
2022/04/05 09:28:48;;;;;;;8.28;7.47;;;;;;;12.88;43.58;97587.43;1755866;81;20914;-65
2022/04/05 09:31:19;;;;;;;9.18;8.30;;;;;;;12.90;43.54;97595.22;1755541;81;21559;-64
2022/04/05 09:34:12;;;;;;;9.78;8.33;;;;;;;13.03;43.29;97600.86;1756757;81;21324;-68
2022/04/05 09:36:41;;;;;;;8.98;8.18;;;;;;;13.03;43.23;97594.46;1755707;81;20883;-67
2022/04/05 09:39:21;;;;;;;9.20;8.40;;;;;;;13.07;43.05;97586.03;1762008;81;20963;-64
2022/04/05 09:42:05;;;;;;;8.18;7.47;;;;;;;13.08;42.88;97589.81;1756604;81;20930;-65
2022/04/05 09:44:35;;;;;;;12.00;8.53;;;;;;;13.14;42.59;97590.75;1741833;81;21437;-66
2022/04/05 09:47:14;;;;;;;8.38;7.58;;;;;;;13.22;42.43;97585.86;1736245;82;21762;-68
2022/04/05 09:49:42;;;;;;;8.90;8.00;;;;;;;13.30;42.34;97587.36;1735501;82;21397;-66
2022/04/05 09:52:31;;;;;;;8.35;7.60;;;;;;;13.46;41.92;97576.80;1735060;82;20867;-67
2022/04/05 09:55:11;;;;;;;7.45;6.67;;;;;;;13.62;41.60;97575.27;1736126;82;20985;-63
2022/04/05 09:57:40;;;;;;;7.90;7.30;;;;;;;13.78;41.46;97580.40;1735962;82;21543;-64
2022/04/05 10:00:17;;;;;;;10.00;8.23;;;;;;;13.99;41.12;97569.89;1724354;82;21254;-65
2022/04/05 10:03:03;;;;;;;8.63;7.85;;;;;;;14.18;40.91;97559.83;1735816;82;20985;-66
2022/04/05 10:05:32;;;;;;;;;;;;;;;14.24;40.79;97577.57;1736972;82;21562;-67
2022/04/05 10:08:00;;;;;;;8.70;7.87;;;;;;;14.29;40.74;97565.62;1735716;82;20143;-66
2022/04/05 10:10:28;;;;;;;8.55;7.75;;;;;;;14.35;40.67;97567.39;1735452;82;20973;-66
2022/04/05 10:12:57;;;;;;;7.30;6.65;;;;;;;14.42;40.88;97561.87;1735640;82;21013;-65
2022/04/05 10:15:25;;;;;;;7.37;6.67;;;;;;;14.56;40.36;97580.08;1726088;82;21649;-67
2022/04/05 10:17:53;;;;;;;9.13;6.67;;;;;;;14.58;40.00;97555.22;1733502;82;20989;-64
2022/04/05 10:20:20;;;;;;;7.00;6.30;;;;;;;14.65;40.22;97563.89;1735587;82;20903;-65
2022/04/05 10:22:56;;;;;;;7.00;6.40;;;;;;;14.72;39.86;97565.09;1736094;82;21547;-67
2022/04/05 10:25:23;;;;;;;7.17;6.53;;;;;;;14.71;39.84;97564.27;1736058;82;21236;-64
2022/04/05 10:27:52;;;;;;;6.58;6.08;;;;;;;14.78;39.82;97558.78;1736071;82;20911;-64
2022/04/05 10:30:41;;;;;;;5.97;5.47;;;;;;;14.82;39.82;97551.34;1735628;82;20914;-68
2022/04/05 10:33:30;;;;;;;6.47;5.87;;;;;;;14.82;39.75;97560.72;1723938;82;20942;-69
2022/04/05 10:35:59;;;;;;;6.40;5.80;;;;;;;14.83;39.87;97551.61;1736173;82;21057;-67
2022/04/05 10:38:30;;;;;;;7.10;6.50;;;;;;;14.86;39.99;97554.33;1735967;82;21485;-67
2022/04/05 10:41:19;;;;;;;6.53;5.92;;;;;;;14.99;39.85;97566.05;1736209;82;21481;-67
2022/04/05 10:43:50;;;;;;;6.28;5.67;;;;;;;15.12;39.68;97559.02;1740553;81;20943;-66
2022/04/05 10:46:40;;;;;;;6.17;5.58;;;;;;;15.05;39.62;97570.96;1752366;81;20906;-63
2022/04/05 10:49:08;;;;;;;6.42;5.83;;;;;;;15.02;39.75;97566.09;1691027;81;20966;-67
2022/04/05 10:52:17;;;;;;;6.92;6.33;;;;;;;15.09;39.82;97563.56;1756508;81;21232;-65
2022/04/05 10:54:50;;;;;;;6.87;6.28;;;;;;;15.21;39.68;97574.16;1756500;81;20970;-64
2022/04/05 10:57:32;;;;;;;7.15;6.47;;;;;;;15.22;39.63;97568.58;1719513;83;20903;-66
2022/04/05 11:00:10;;;;;;;6.35;5.85;;;;;;;15.27;39.62;97562.47;1755904;81;21599;-67
2022/04/05 11:02:43;;;;;;;6.75;6.03;;;;;;;15.31;39.67;97568.42;1756430;81;21385;-64
2022/04/05 11:05:19;;;;;;;6.47;5.87;;;;;;;15.36;39.63;97556.97;1745323;81;21221;-66
2022/04/05 11:07:58;;;;;;;6.53;5.92;;;;;;;15.35;39.61;97570.09;1754976;81;20899;-68
2022/04/05 11:10:28;;;;;;;6.83;6.22;;;;;;;15.37;41.22;97573.33;1755597;81;21559;-67
2022/04/05 11:13:18;;;;;;;7.60;6.90;;;;;;;15.29;39.99;97573.23;1755936;80;20958;-65
2022/04/05 11:15:56;;;;;;;7.90;7.20;;;;;;;15.24;39.95;97568.32;1756642;81;21005;-65
2022/04/05 11:18:28;;;;;;;6.97;6.28;;;;;;;15.12;40.02;97573.75;1755619;81;21238;-68
2022/04/05 11:20:57;;;;;;;7.62;6.92;;;;;;;15.07;40.04;97574.23;1755791;81;20950;-68
2022/04/05 11:23:50;;;;;;;6.80;6.20;;;;;;;14.99;40.11;97579.99;1756402;81;21034;-69
2022/04/05 11:26:39;;;;;;;8.08;7.35;;;;;;;14.94;40.42;97578.58;1747066;81;20970;-66
2022/04/05 11:29:20;;;;;;;6.75;6.25;;;;;;;14.79;40.79;97583.13;1754392;81;21548;-68
2022/04/05 11:31:49;;;;;;;6.12;5.62;;;;;;;14.65;40.95;97577.27;1755872;81;21327;-66
2022/04/05 11:34:37;;;;;;;6.42;5.90;;;;;;;14.56;41.28;97589.96;1704279;81;20950;-64
2022/04/05 11:37:06;;;;;;;6.83;6.22;;;;;;;14.52;41.54;97578.13;1755770;81;21550;-66
2022/04/05 11:39:39;;;;;;;7.08;6.37;;;;;;;14.48;41.82;97575.11;1756743;80;21053;-67
2022/04/05 11:42:08;;;;;;;6.20;5.72;;;;;;;14.44;42.18;97591.89;1744953;81;20927;-65
2022/04/05 11:44:35;;;;;;;6.25;5.75;;;;;;;14.43;42.27;97585.73;1743493;81;21223;-66
2022/04/05 11:47:02;;;;;;;6.03;5.53;;;;;;;14.47;42.40;97587.41;1727343;82;21182;-65
2022/04/05 11:49:42;;;;;;;5.72;5.22;;;;;;;14.49;42.61;97578.61;1727464;82;21607;-67
2022/04/05 11:52:10;;;;;;;6.20;5.70;;;;;;;14.52;42.76;97588.28;1727753;82;21409;-64
2022/04/05 11:57:25;;;;;;;6.30;5.80;;;;;;;14.66;42.90;97584.27;1727728;82;21071;-65